createdAt,value
2017-09-05T00:01:14.075Z,8.87
2017-09-05T00:03:41.393Z,10.00
2017-09-05T00:06:08.720Z,10.70
2017-09-05T00:08:41.887Z,9.13
2017-09-05T00:11:20.991Z,9.87
2017-09-05T00:13:48.330Z,12.40
2017-09-05T00:16:19.199Z,9.93
2017-09-05T00:18:49.200Z,10.93
2017-09-05T00:21:21.239Z,11.60
2017-09-05T00:23:48.577Z,12.60
2017-09-05T00:26:15.913Z,11.83
2017-09-05T00:28:43.284Z,14.03
2017-09-05T00:31:10.594Z,15.57
2017-09-05T00:33:37.949Z,13.80
2017-09-05T00:36:05.344Z,11.70
2017-09-05T00:38:32.652Z,13.93
2017-09-05T00:40:59.975Z,16.50
2017-09-05T00:43:27.318Z,14.73
2017-09-05T00:45:54.649Z,13.80
2017-09-05T00:48:22.013Z,15.37
2017-09-05T00:50:49.343Z,14.50
2017-09-05T00:53:16.664Z,14.57
2017-09-05T00:55:44.001Z,13.53
2017-09-05T00:58:11.352Z,18.20
2017-09-05T01:00:38.675Z,14.13
2017-09-05T01:03:05.981Z,16.80
2017-09-05T01:05:33.310Z,14.43
2017-09-05T01:08:00.613Z,20.27
2017-09-05T01:10:27.963Z,17.37
2017-09-05T01:12:55.283Z,19.57
2017-09-05T01:15:22.621Z,15.50
2017-09-05T01:17:49.925Z,17.50
2017-09-05T01:20:17.260Z,17.17
2017-09-05T01:22:44.574Z,16.77
2017-09-05T01:25:11.904Z,18.80
2017-09-05T01:27:39.220Z,17.67
2017-09-05T01:30:06.546Z,15.30
2017-09-05T01:32:33.862Z,14.77
2017-09-05T01:35:01.214Z,18.37
2017-09-05T01:37:28.534Z,18.43
2017-09-05T01:39:55.863Z,20.63
2017-09-05T01:42:23.177Z,17.83
2017-09-05T01:44:50.537Z,16.97
2017-09-05T01:47:17.870Z,18.30
2017-09-05T01:49:45.203Z,18.70
2017-09-05T01:52:12.547Z,17.90
2017-09-05T01:54:39.924Z,18.87
2017-09-05T01:57:07.224Z,19.30
2017-09-05T01:59:35.509Z,24.27
2017-09-05T02:02:02.814Z,22.37
2017-09-05T02:04:30.167Z,19.73
2017-09-05T02:06:57.460Z,23.03
2017-09-05T02:09:24.793Z,19.67
2017-09-05T02:11:52.107Z,19.83
2017-09-05T02:14:19.459Z,20.07
2017-09-05T02:16:46.779Z,20.03
2017-09-05T02:19:14.151Z,18.53
2017-09-05T02:21:41.469Z,19.87
2017-09-05T02:24:08.815Z,20.87
2017-09-05T02:26:36.176Z,20.97
2017-09-05T02:29:03.482Z,24.10
2017-09-05T02:31:30.846Z,19.73
2017-09-05T02:33:58.165Z,20.80
2017-09-05T02:36:25.529Z,20.43
2017-09-05T02:38:52.859Z,20.53
2017-09-05T02:41:20.232Z,21.93
2017-09-05T02:43:48.440Z,19.43
2017-09-05T02:46:15.773Z,21.90
2017-09-05T02:48:43.079Z,20.00
2017-09-05T02:51:10.397Z,21.73
2017-09-05T02:53:37.738Z,20.80
2017-09-05T02:56:05.051Z,20.93
2017-09-05T02:58:32.392Z,21.80
2017-09-05T03:00:59.720Z,22.40
2017-09-05T03:03:27.011Z,19.57
2017-09-05T03:05:54.321Z,20.37
2017-09-05T03:08:21.647Z,21.00
2017-09-05T03:10:48.960Z,24.20
2017-09-05T03:13:16.270Z,20.67
2017-09-05T03:15:43.596Z,20.60
2017-09-05T03:18:10.923Z,21.73
2017-09-05T03:20:38.273Z,20.33
2017-09-05T03:23:05.583Z,23.27
2017-09-05T03:25:32.925Z,22.07
2017-09-05T03:28:00.226Z,23.10
2017-09-05T03:30:27.551Z,19.93
2017-09-05T03:32:54.867Z,26.07
2017-09-05T03:35:22.211Z,25.17
2017-09-05T03:37:49.532Z,24.47
2017-09-05T03:40:16.839Z,21.33
2017-09-05T03:42:44.153Z,23.03
2017-09-05T03:45:11.485Z,20.97
2017-09-05T03:47:39.923Z,22.10
2017-09-05T03:50:07.245Z,22.37
2017-09-05T03:52:34.557Z,23.13
2017-09-05T03:55:01.861Z,21.27
2017-09-05T03:57:29.219Z,22.50
2017-09-05T03:59:56.549Z,24.37
2017-09-05T04:02:23.893Z,24.50
2017-09-05T04:04:51.227Z,21.70
2017-09-05T04:07:18.560Z,23.53
2017-09-05T04:09:45.888Z,21.87
2017-09-05T04:12:13.212Z,23.30
2017-09-05T04:14:40.517Z,26.10
2017-09-05T04:17:07.849Z,23.60
2017-09-05T04:19:35.351Z,26.20
2017-09-05T04:22:02.686Z,23.90
2017-09-05T04:24:29.996Z,26.87
2017-09-05T04:26:57.317Z,25.33
2017-09-05T04:29:24.641Z,27.50
2017-09-05T04:31:51.982Z,29.80
2017-09-05T04:34:19.328Z,28.43
2017-09-05T04:36:46.674Z,26.50
2017-09-05T04:39:13.976Z,27.93
2017-09-05T04:41:41.296Z,27.97
2017-09-05T04:44:08.606Z,26.57
2017-09-05T04:46:35.937Z,27.80
2017-09-05T04:49:03.252Z,25.80
2017-09-05T04:51:30.581Z,26.87
2017-09-05T04:53:57.884Z,25.37
2017-09-05T04:56:25.249Z,26.70
2017-09-05T04:58:52.575Z,26.00
2017-09-05T05:01:19.957Z,25.00
2017-09-05T05:03:47.277Z,26.60
2017-09-05T05:06:14.609Z,23.97
2017-09-05T05:08:41.929Z,26.33
2017-09-05T05:11:09.258Z,25.17
2017-09-05T05:13:36.573Z,26.87
2017-09-05T05:16:03.908Z,24.37
2017-09-05T05:18:31.218Z,25.13
2017-09-05T05:20:58.555Z,25.43
2017-09-05T05:23:25.897Z,25.63
2017-09-05T05:25:53.239Z,24.20
2017-09-05T05:28:20.562Z,24.63
2017-09-05T05:30:47.914Z,25.70
2017-09-05T05:33:15.249Z,21.10
2017-09-05T05:35:42.564Z,21.47
2017-09-05T05:38:09.901Z,23.93
2017-09-05T05:40:37.217Z,25.40
2017-09-05T05:43:04.531Z,27.43
2017-09-05T05:45:31.860Z,22.33
2017-09-05T05:47:59.219Z,24.27
2017-09-05T05:50:26.530Z,24.67
2017-09-05T05:52:53.882Z,26.53
2017-09-05T05:55:21.215Z,22.97
2017-09-05T05:57:48.547Z,24.17
2017-09-05T06:00:15.864Z,24.67
2017-09-05T06:02:43.195Z,25.73
2017-09-05T06:05:10.495Z,21.50
2017-09-05T06:07:37.824Z,28.77
2017-09-05T06:10:05.161Z,24.20
2017-09-05T06:12:32.524Z,24.00
2017-09-05T06:14:59.851Z,30.27
2017-09-05T06:17:27.207Z,23.80
2017-09-05T06:19:54.519Z,23.40
2017-09-05T06:22:21.881Z,22.27
2017-09-05T06:24:49.200Z,25.53
2017-09-05T06:27:16.535Z,25.10
2017-09-05T06:29:43.846Z,26.93
2017-09-05T06:32:11.160Z,25.07
2017-09-05T06:34:38.480Z,24.27
2017-09-05T06:37:05.825Z,20.43
2017-09-05T06:39:33.151Z,21.63
2017-09-05T06:42:00.506Z,20.93
2017-09-05T06:44:27.834Z,21.97
2017-09-05T06:46:55.183Z,21.07
2017-09-05T06:49:22.534Z,20.50
2017-09-05T06:51:49.848Z,18.27
2017-09-05T06:54:17.165Z,21.40
2017-09-05T06:56:44.474Z,18.47
2017-09-05T06:59:12.975Z,17.43
2017-09-05T07:01:40.292Z,17.63
2017-09-05T07:04:07.899Z,21.27
2017-09-05T07:06:35.230Z,17.50
2017-09-05T07:09:02.553Z,17.33
2017-09-05T07:11:29.870Z,16.20
2017-09-05T07:13:57.249Z,14.43
2017-09-05T07:16:24.575Z,21.90
2017-09-05T07:18:51.902Z,14.30
2017-09-05T07:21:19.211Z,16.57
2017-09-05T07:23:46.566Z,17.33
2017-09-05T07:26:13.871Z,13.17
2017-09-05T07:28:41.210Z,16.30
2017-09-05T07:31:08.538Z,11.87
2017-09-05T07:33:35.849Z,11.33
2017-09-05T07:36:03.156Z,12.63
2017-09-05T07:38:30.499Z,14.27
2017-09-05T07:40:57.806Z,10.27
2017-09-05T07:43:25.176Z,12.30
2017-09-05T07:45:52.503Z,13.00
2017-09-05T07:48:19.851Z,12.10
2017-09-05T07:50:47.168Z,13.83
2017-09-05T07:53:16.984Z,9.77
2017-09-05T07:55:44.300Z,7.37
2017-09-05T07:58:11.614Z,7.33
2017-09-05T08:00:38.910Z,9.93
2017-09-05T08:03:06.246Z,9.10
2017-09-05T08:05:33.565Z,7.70
2017-09-05T08:08:00.889Z,8.70
2017-09-05T08:10:28.199Z,9.60
2017-09-05T08:12:55.489Z,11.40
2017-09-05T08:15:22.807Z,7.60
2017-09-05T08:17:50.119Z,6.43
2017-09-05T08:20:17.444Z,10.53
2017-09-05T08:22:44.735Z,11.20
2017-09-05T08:25:12.066Z,8.23
2017-09-05T08:27:39.353Z,8.73
2017-09-05T08:30:06.707Z,9.47
2017-09-05T08:32:34.025Z,7.80
2017-09-05T08:35:01.378Z,9.93
2017-09-05T08:37:28.707Z,8.53
2017-09-05T08:39:56.062Z,10.07
2017-09-05T08:42:23.390Z,8.20
2017-09-05T08:44:50.751Z,10.03
2017-09-05T08:47:18.158Z,9.27
2017-09-05T08:49:45.481Z,12.20
2017-09-05T08:52:12.793Z,10.37
2017-09-05T08:54:40.097Z,9.40
2017-09-05T08:57:07.790Z,9.73
2017-09-05T08:59:35.111Z,9.73
2017-09-05T09:02:02.439Z,11.70
2017-09-05T09:04:29.787Z,10.67
2017-09-05T09:06:57.167Z,10.77
2017-09-05T09:09:24.489Z,10.90
2017-09-05T09:11:51.794Z,11.77
2017-09-05T09:14:19.181Z,9.80
2017-09-05T09:16:46.485Z,10.30
2017-09-05T09:19:13.837Z,15.23
2017-09-05T09:21:41.137Z,11.40
2017-09-05T09:24:08.457Z,11.97
2017-09-05T09:26:35.766Z,12.60
2017-09-05T09:29:03.085Z,12.07
2017-09-05T09:31:31.943Z,12.80
2017-09-05T09:33:59.252Z,13.40
2017-09-05T09:36:26.562Z,13.13
2017-09-05T09:38:53.882Z,16.50
2017-09-05T09:41:21.245Z,14.43
2017-09-05T09:43:48.552Z,13.07
2017-09-05T09:46:15.885Z,13.07
2017-09-05T09:48:43.207Z,13.47
2017-09-05T09:51:10.522Z,13.70
2017-09-05T09:53:38.026Z,20.17
2017-09-05T09:56:05.389Z,11.90
2017-09-05T09:58:32.711Z,17.30
2017-09-05T10:01:00.053Z,13.40
2017-09-05T10:03:27.390Z,14.03
2017-09-05T10:05:54.765Z,19.07
2017-09-05T10:08:22.079Z,14.03
2017-09-05T10:10:49.450Z,15.73
2017-09-05T10:13:16.762Z,13.17
2017-09-05T10:15:44.166Z,15.63
2017-09-05T10:18:11.499Z,12.80
2017-09-05T10:20:38.811Z,12.23
2017-09-05T10:23:06.634Z,13.90
2017-09-05T10:25:34.398Z,17.17
2017-09-05T10:28:01.712Z,18.70
2017-09-05T10:30:29.032Z,17.20
2017-09-05T10:32:56.338Z,15.10
2017-09-05T10:35:23.674Z,14.43
2017-09-05T10:37:50.982Z,16.60
2017-09-05T10:40:18.345Z,18.37
2017-09-05T10:42:45.674Z,17.67
2017-09-05T10:45:13.038Z,14.47
2017-09-05T10:47:40.370Z,18.70
2017-09-05T10:50:08.035Z,18.40
2017-09-05T10:52:35.367Z,14.83
2017-09-05T10:55:03.536Z,16.20
2017-09-05T10:57:30.888Z,17.10
2017-09-05T10:59:58.198Z,15.53
2017-09-05T11:02:25.557Z,12.53
2017-09-05T11:04:52.877Z,11.23
2017-09-05T11:07:20.213Z,15.47
2017-09-05T11:09:47.546Z,13.63
2017-09-05T11:12:14.916Z,12.87
2017-09-05T11:14:42.350Z,13.63
2017-09-05T11:17:09.684Z,12.30
2017-09-05T11:19:37.008Z,12.50
2017-09-05T11:22:04.376Z,10.83
2017-09-05T11:24:31.710Z,20.40
2017-09-05T11:26:59.069Z,11.57
2017-09-05T11:29:26.383Z,12.93
2017-09-05T11:31:53.753Z,13.13
2017-09-05T11:34:21.081Z,12.83
2017-09-05T11:36:48.426Z,11.20
2017-09-05T11:39:15.723Z,10.97
2017-09-05T11:41:43.045Z,12.00
2017-09-05T11:44:12.121Z,13.87
2017-09-05T11:46:39.452Z,13.33
2017-09-05T11:49:06.741Z,10.60
2017-09-05T11:51:34.098Z,10.57
2017-09-05T11:54:01.424Z,8.53
2017-09-05T11:56:28.727Z,11.77
2017-09-05T11:58:56.034Z,11.87
2017-09-05T12:01:24.113Z,13.43
2017-09-05T12:03:51.419Z,11.90
2017-09-05T12:06:18.748Z,12.57
2017-09-05T12:08:46.056Z,8.73
2017-09-05T12:11:13.482Z,8.60
2017-09-05T12:13:40.767Z,10.27
2017-09-05T12:16:08.321Z,9.67
2017-09-05T12:18:35.671Z,10.30
2017-09-05T12:21:03.019Z,9.37
2017-09-05T12:23:30.339Z,7.50
2017-09-05T12:25:58.754Z,6.60
2017-09-05T12:28:26.053Z,11.03
2017-09-05T12:30:53.416Z,10.40
2017-09-05T12:33:20.732Z,9.53
2017-09-05T12:35:48.077Z,9.60
2017-09-05T12:38:15.434Z,11.03
2017-09-05T12:40:42.962Z,10.83
2017-09-05T12:43:10.292Z,8.43
2017-09-05T12:45:37.611Z,14.90
2017-09-05T12:48:05.876Z,8.10
2017-09-05T12:50:33.242Z,9.77
2017-09-05T12:53:00.559Z,13.37
2017-09-05T12:55:27.868Z,8.83
2017-09-05T12:57:55.188Z,8.80
2017-09-05T13:00:23.144Z,9.03
2017-09-05T13:02:50.484Z,8.83
2017-09-05T13:05:17.946Z,7.63
2017-09-05T13:07:45.248Z,8.30
2017-09-05T13:10:13.472Z,9.20
2017-09-05T13:12:40.803Z,9.60
2017-09-05T13:15:08.400Z,8.20
2017-09-05T13:17:35.763Z,8.47
2017-09-05T13:20:03.071Z,9.20
2017-09-05T13:22:30.372Z,7.97
2017-09-05T13:24:57.666Z,7.03
2017-09-05T13:27:25.019Z,6.53
2017-09-05T13:29:52.344Z,8.27
2017-09-05T13:32:19.651Z,6.60
2017-09-05T13:34:46.955Z,7.90
2017-09-05T13:37:14.274Z,8.40
2017-09-05T13:39:41.584Z,7.70
2017-09-05T13:42:08.919Z,9.33
2017-09-05T13:44:36.226Z,6.77
2017-09-05T13:47:03.559Z,6.40
2017-09-05T13:49:32.366Z,6.40
2017-09-05T13:51:59.674Z,6.10
2017-09-05T13:54:26.983Z,5.83
2017-09-05T13:56:54.338Z,5.50
2017-09-05T13:59:21.644Z,5.60
2017-09-05T14:01:48.972Z,6.90
2017-09-05T14:04:16.293Z,6.33
2017-09-05T14:06:43.590Z,8.90
2017-09-05T14:09:10.930Z,7.00
2017-09-05T14:11:38.464Z,6.83
2017-09-05T14:14:05.768Z,11.53
2017-09-05T14:16:33.083Z,7.03
2017-09-05T14:19:00.407Z,6.80
2017-09-05T14:21:27.716Z,5.63
2017-09-05T14:23:55.026Z,5.47
2017-09-05T14:26:22.348Z,7.80
2017-09-05T14:28:49.660Z,5.00
2017-09-05T14:31:16.975Z,4.83
2017-09-05T14:33:44.299Z,4.90
2017-09-05T14:36:11.598Z,4.50
2017-09-05T14:38:38.955Z,4.90
2017-09-05T14:41:06.251Z,5.80
2017-09-05T14:43:33.583Z,5.33
2017-09-05T14:46:00.883Z,5.40
2017-09-05T14:48:28.219Z,5.20
2017-09-05T14:50:55.506Z,5.23
2017-09-05T14:53:22.829Z,5.43
2017-09-05T14:55:50.125Z,5.70
2017-09-05T14:58:17.453Z,6.93
2017-09-05T15:00:44.765Z,5.57
2017-09-05T15:03:12.093Z,5.23
2017-09-05T15:05:39.391Z,6.67
2017-09-05T15:08:06.704Z,5.30
2017-09-05T15:10:34.040Z,5.30
2017-09-05T15:13:01.360Z,5.13
2017-09-05T15:15:28.670Z,5.07
2017-09-05T15:17:56.012Z,7.83
2017-09-05T15:20:23.314Z,5.33
2017-09-05T15:22:50.663Z,4.77
2017-09-05T15:25:17.988Z,5.57
2017-09-05T15:27:45.458Z,5.07
2017-09-05T15:30:12.799Z,5.00
2017-09-05T15:32:40.118Z,5.50
2017-09-05T15:35:07.417Z,6.10
2017-09-05T15:37:34.727Z,5.40
2017-09-05T15:40:02.052Z,6.17
2017-09-05T15:42:29.357Z,5.43
2017-09-05T15:44:56.679Z,5.03
2017-09-05T15:47:23.961Z,5.63
2017-09-05T15:49:51.321Z,6.93
2017-09-05T15:52:18.631Z,6.93
2017-09-05T15:54:45.948Z,5.20
2017-09-05T15:57:13.239Z,5.40
2017-09-05T15:59:40.571Z,5.97
2017-09-05T16:02:07.902Z,7.10
2017-09-05T16:04:35.254Z,5.30
2017-09-05T16:07:02.578Z,5.37
2017-09-05T16:09:29.885Z,5.93
2017-09-05T16:11:57.207Z,5.50
2017-09-05T16:14:24.540Z,6.30
2017-09-05T16:16:51.851Z,6.80
2017-09-05T16:19:19.197Z,7.50
2017-09-05T16:21:46.538Z,6.50
2017-09-05T16:24:13.907Z,6.60
2017-09-05T16:26:41.218Z,6.50
2017-09-05T16:29:08.681Z,6.23
2017-09-05T16:31:35.990Z,6.10
2017-09-05T16:34:03.301Z,6.10
2017-09-05T16:36:30.616Z,6.03
2017-09-05T16:38:57.935Z,6.20
2017-09-05T16:41:25.501Z,5.87
2017-09-05T16:43:52.823Z,7.07
2017-09-05T16:46:20.145Z,7.63
2017-09-05T16:48:47.451Z,9.30
2017-09-05T16:51:14.750Z,7.77
2017-09-05T16:53:42.071Z,7.97
2017-09-05T16:56:09.420Z,9.67
2017-09-05T16:58:36.763Z,8.90
2017-09-05T17:01:04.116Z,8.57
2017-09-05T17:03:31.449Z,10.17
2017-09-05T17:05:59.016Z,8.70
2017-09-05T17:08:26.330Z,10.17
2017-09-05T17:10:53.682Z,10.00
2017-09-05T17:13:21.003Z,8.57
2017-09-05T17:15:48.353Z,9.00
2017-09-05T17:18:15.811Z,13.40
2017-09-05T17:20:43.360Z,10.47
2017-09-05T17:23:10.680Z,9.37
2017-09-05T17:25:38.065Z,10.80
2017-09-05T17:28:05.365Z,9.17
2017-09-05T17:30:32.691Z,9.53
2017-09-05T17:32:59.995Z,12.67
2017-09-05T17:35:27.352Z,8.80
2017-09-05T17:37:54.646Z,12.00
2017-09-05T17:40:21.977Z,11.37
2017-09-05T17:42:49.306Z,11.17
2017-09-05T17:45:17.662Z,8.77
2017-09-05T17:47:45.012Z,10.23
2017-09-05T17:50:12.358Z,9.83
2017-09-05T17:52:39.694Z,11.33
2017-09-05T17:55:07.076Z,11.63
2017-09-05T17:57:34.389Z,11.10
2017-09-05T18:00:01.732Z,10.13
2017-09-05T18:02:29.217Z,12.80
2017-09-05T18:04:56.661Z,12.37
2017-09-05T18:07:23.953Z,10.80
2017-09-05T18:09:51.321Z,11.90
2017-09-05T18:12:18.625Z,18.10
2017-09-05T18:14:45.996Z,12.43
2017-09-05T18:17:13.401Z,12.83
2017-09-05T18:19:40.910Z,16.73
2017-09-05T18:22:08.247Z,15.03
2017-09-05T18:24:35.568Z,14.07
2017-09-05T18:27:02.940Z,12.47
2017-09-05T18:29:30.247Z,12.47
2017-09-05T18:31:57.603Z,16.50
2017-09-05T18:34:24.913Z,17.90
2017-09-05T18:36:52.286Z,14.50
2017-09-05T18:39:19.647Z,18.80
2017-09-05T18:41:46.974Z,17.50
2017-09-05T18:44:14.289Z,17.73
2017-09-05T18:46:41.613Z,14.67
2017-09-05T18:49:08.962Z,18.87
2017-09-05T18:51:36.322Z,15.40
2017-09-05T18:54:03.670Z,18.93
2017-09-05T18:56:30.997Z,16.80
2017-09-05T18:58:58.461Z,24.17
2017-09-05T19:01:26.309Z,16.63
2017-09-05T19:03:53.757Z,17.87
2017-09-05T19:06:21.091Z,15.73
2017-09-05T19:08:48.855Z,18.87
2017-09-05T19:11:16.190Z,16.67
2017-09-05T19:13:43.494Z,17.40
2017-09-05T19:16:10.834Z,16.30
2017-09-05T19:18:38.216Z,16.20
2017-09-05T19:21:05.540Z,17.43
2017-09-05T19:23:32.928Z,18.40
2017-09-05T19:26:00.267Z,15.17
2017-09-05T19:28:27.574Z,16.73
2017-09-05T19:30:54.906Z,16.93
2017-09-05T19:33:22.241Z,15.17
2017-09-05T19:35:49.576Z,20.27
2017-09-05T19:38:16.916Z,16.67
2017-09-05T19:40:44.332Z,16.00
2017-09-05T19:43:11.650Z,20.90
2017-09-05T19:45:38.997Z,19.17
2017-09-05T19:48:07.091Z,20.03
2017-09-05T19:50:34.425Z,19.97
2017-09-05T19:53:01.811Z,18.67
2017-09-05T19:55:29.249Z,17.53
2017-09-05T19:57:56.584Z,24.17
2017-09-05T20:00:23.892Z,18.47
2017-09-05T20:02:51.254Z,17.37
2017-09-05T20:05:18.585Z,18.37
2017-09-05T20:07:45.956Z,18.13
2017-09-05T20:10:13.561Z,15.67
2017-09-05T20:12:40.944Z,16.03
2017-09-05T20:15:08.963Z,16.07
2017-09-05T20:17:36.346Z,16.27
2017-09-05T20:20:03.668Z,18.00
2017-09-05T20:22:31.117Z,17.10
2017-09-05T20:24:59.240Z,15.70
2017-09-05T20:27:26.591Z,14.63
2017-09-05T20:29:54.148Z,15.73
2017-09-05T20:32:21.506Z,18.80
2017-09-05T20:34:48.812Z,19.70
2017-09-05T20:37:16.328Z,17.70
2017-09-05T20:39:43.642Z,19.20
2017-09-05T20:42:10.967Z,19.60
2017-09-05T20:44:38.334Z,19.03
2017-09-05T20:47:05.695Z,21.83
2017-09-05T20:49:33.000Z,28.67
2017-09-05T20:52:01.098Z,22.37
2017-09-05T20:54:28.414Z,18.67
2017-09-05T20:56:55.741Z,19.17
2017-09-05T20:59:23.063Z,19.17
2017-09-05T21:01:50.425Z,19.53
2017-09-05T21:04:17.747Z,18.87
2017-09-05T21:06:45.098Z,20.13
2017-09-05T21:09:12.414Z,19.90
2017-09-05T21:11:39.793Z,22.40
2017-09-05T21:14:07.096Z,18.40
2017-09-05T21:16:34.414Z,20.03
2017-09-05T21:19:01.742Z,20.30
2017-09-05T21:21:29.083Z,24.77
2017-09-05T21:23:56.396Z,20.57
2017-09-05T21:26:23.700Z,24.00
2017-09-05T21:28:51.050Z,23.60
2017-09-05T21:31:18.407Z,26.80
2017-09-05T21:33:45.755Z,27.40
2017-09-05T21:36:13.095Z,26.70
2017-09-05T21:38:40.425Z,23.60
2017-09-05T21:41:07.749Z,23.63
2017-09-05T21:43:35.105Z,29.47
2017-09-05T21:46:02.428Z,23.27
2017-09-05T21:48:29.798Z,23.90
2017-09-05T21:50:57.116Z,23.60
2017-09-05T21:53:24.473Z,24.07
2017-09-05T21:55:51.799Z,25.77
2017-09-05T21:58:19.157Z,25.37
2017-09-05T22:00:46.544Z,25.60
2017-09-05T22:03:13.886Z,30.90
2017-09-05T22:05:41.580Z,26.33
2017-09-05T22:08:09.094Z,27.63
2017-09-05T22:10:36.405Z,28.47
2017-09-05T22:13:03.734Z,30.93
2017-09-05T22:15:34.944Z,30.07
2017-09-05T22:18:02.308Z,28.27
2017-09-05T22:20:44.505Z,31.60
2017-09-05T22:23:11.847Z,33.33
2017-09-05T22:25:44.911Z,40.70
2017-09-05T22:28:17.963Z,34.30
2017-09-05T22:30:45.302Z,31.10
2017-09-05T22:33:12.662Z,30.77
2017-09-05T22:35:39.969Z,34.47
2017-09-05T22:38:07.323Z,29.10
2017-09-05T22:40:34.672Z,32.10
2017-09-05T22:43:02.014Z,32.07
2017-09-05T22:45:29.345Z,34.70
2017-09-05T22:47:56.698Z,32.47
2017-09-05T22:50:24.044Z,27.37
2017-09-05T22:52:51.391Z,34.50
2017-09-05T22:55:18.722Z,32.70
2017-09-05T22:57:46.079Z,31.77
2017-09-05T23:00:13.398Z,31.33
2017-09-05T23:02:40.702Z,33.37
2017-09-05T23:05:08.044Z,31.17
2017-09-05T23:07:35.426Z,32.30
2017-09-05T23:10:02.779Z,38.13
2017-09-05T23:12:30.103Z,32.50
2017-09-05T23:14:57.436Z,32.57
2017-09-05T23:17:24.768Z,34.10
2017-09-05T23:19:52.143Z,29.77
2017-09-05T23:22:19.457Z,29.17
2017-09-05T23:24:46.852Z,32.93
2017-09-05T23:27:14.188Z,32.03
2017-09-05T23:29:42.109Z,37.50
2017-09-05T23:32:09.428Z,31.47
2017-09-05T23:34:36.766Z,36.00
2017-09-05T23:37:04.122Z,35.63
2017-09-05T23:39:31.456Z,31.70
2017-09-05T23:41:58.793Z,33.30
2017-09-05T23:44:26.161Z,29.90
2017-09-05T23:46:53.491Z,35.30
2017-09-05T23:49:20.834Z,34.23
2017-09-05T23:51:48.189Z,33.87
2017-09-05T23:54:15.550Z,33.57
2017-09-05T23:56:42.857Z,34.33
2017-09-05T23:59:10.206Z,30.73
